Time;durP1;ratioP1;P1;durP2;ratioP2;P2;SDS_P1;SDS_P2;PMS_P1;PMS_P2;Temp;Humidity;BMP_temperature;BMP_pressure;BME280_temperature;BME280_humidity;BME280_pressure;Samples;Min_cycle;Max_cycle;Signal;HPM_P1;HPM_P2
2023/04/18 00:00:12;;;;;;;4.83;3.93;;;;;;;10.06;nan;99766.47;4969873;28;20211;-79
2023/04/18 00:02:38;;;;;;;5.43;4.80;;;;;;;10.04;nan;99768.34;4966943;28;20463;-82
2023/04/18 00:05:06;;;;;;;7.45;5.05;;;;;;;10.03;nan;99767.50;4965957;28;21380;-82
2023/04/18 00:07:32;;;;;;;7.10;4.60;;;;;;;10.03;nan;99758.78;4966748;28;20239;-86
2023/04/18 00:09:58;;;;;;;7.03;5.32;;;;;;;10.01;nan;99758.03;4968959;28;20208;-79
2023/04/18 00:12:23;;;;;;;5.70;4.63;;;;;;;9.97;nan;99760.84;4954197;28;20259;-81
2023/04/18 00:14:52;;;;;;;7.63;4.27;;;;;;;9.94;nan;99747.06;4949180;28;20236;-84
2023/04/18 00:17:17;;;;;;;6.63;4.40;;;;;;;9.92;nan;99746.31;4948224;28;20208;-83
2023/04/18 00:19:43;;;;;;;5.93;5.37;;;;;;;9.88;nan;99750.03;4949050;28;20628;-79
2023/04/18 00:22:12;;;;;;;4.77;4.13;;;;;;;9.84;nan;99745.91;4948287;28;20248;-80
2023/04/18 00:24:38;;;;;;;4.90;4.25;;;;;;;9.81;nan;99746.94;4948187;28;20243;-79
2023/04/18 00:27:04;;;;;;;5.07;4.07;;;;;;;9.81;nan;99743.47;4947147;28;20662;-81
2023/04/18 00:29:30;;;;;;;3.70;3.13;;;;;;;9.80;nan;99747.84;4947926;28;20252;-79
2023/04/18 00:31:56;;;;;;;4.82;4.10;;;;;;;9.79;nan;99738.31;4948755;28;20231;-79
2023/04/18 00:34:22;;;;;;;8.63;4.50;;;;;;;9.78;nan;99741.88;4947478;28;20349;-83
2023/04/18 00:36:47;;;;;;;4.37;3.97;;;;;;;9.76;nan;99735.84;4947752;28;20781;-80
2023/04/18 00:39:13;;;;;;;4.70;4.18;;;;;;;9.74;nan;99740.34;4927303;28;20716;-80
2023/04/18 00:41:38;;;;;;;6.87;4.10;;;;;;;9.72;nan;99743.06;4931767;28;20210;-82
2023/04/18 00:44:04;;;;;;;3.80;3.50;;;;;;;9.71;nan;99738.75;4951054;28;20244;-80
2023/04/18 00:46:29;;;;;;;5.43;3.80;;;;;;;9.71;nan;99733.50;4945843;28;20325;-80
2023/04/18 00:48:55;;;;;;;4.50;3.63;;;;;;;9.72;nan;99735.19;4928644;28;20624;-80
2023/04/18 00:51:21;;;;;;;4.07;3.20;;;;;;;9.76;nan;99735.84;4930510;28;20244;-80
2023/04/18 00:53:46;;;;;;;6.20;3.60;;;;;;;9.79;nan;99734.84;4948860;28;20228;-81
2023/04/18 00:56:12;;;;;;;3.93;3.60;;;;;;;9.83;nan;99737.19;4947466;28;20827;-81
2023/04/18 00:58:39;;;;;;;4.10;3.70;;;;;;;9.87;nan;99741.31;4945632;28;20228;-79
2023/04/18 01:01:05;;;;;;;4.00;3.42;;;;;;;9.89;nan;99728.97;4930818;28;20673;-81
2023/04/18 01:03:31;;;;;;;4.67;4.20;;;;;;;9.92;nan;99731.41;4947018;28;20202;-81
2023/04/18 01:05:57;;;;;;;5.70;3.60;;;;;;;9.95;nan;99727.75;4948337;28;20200;-82
2023/04/18 01:08:24;;;;;;;3.58;3.28;;;;;;;9.98;nan;99722.31;4948145;28;20209;-81
2023/04/18 01:10:50;;;;;;;5.25;3.78;;;;;;;9.98;nan;99724.94;4944474;28;20689;-80
2023/04/18 01:13:17;;;;;;;5.07;4.53;;;;;;;9.94;nan;99720.84;4947454;28;20216;-82
2023/04/18 01:15:47;;;;;;;3.88;3.47;;;;;;;9.93;nan;99713.88;4946602;28;20196;-82
2023/04/18 01:18:16;;;;;;;5.82;4.32;;;;;;;9.90;nan;99722.78;4948157;28;20196;-80
2023/04/18 01:20:50;;;;;;;3.80;3.40;;;;;;;9.86;nan;99715.19;4948107;28;20200;-80
2023/04/18 01:23:18;;;;;;;5.47;3.85;;;;;;;9.82;nan;99711.03;4946770;28;20303;-82
2023/04/18 01:25:45;;;;;;;5.90;4.33;;;;;;;9.78;nan;99706.94;4947376;28;20202;-82
2023/04/18 01:28:13;;;;;;;5.63;4.70;;;;;;;9.72;nan;99708.97;4950056;28;20209;-80
2023/04/18 01:30:39;;;;;;;5.22;4.43;;;;;;;9.67;nan;99707.56;4947273;28;20742;-82
2023/04/18 01:33:04;;;;;;;7.23;5.30;;;;;;;9.61;nan;99705.25;4949905;28;20205;-82
2023/04/18 01:35:31;;;;;;;5.17;4.40;;;;;;;9.57;nan;99707.22;4945836;28;20461;-79
2023/04/18 01:37:57;;;;;;;4.95;4.45;;;;;;;9.51;nan;99703.19;4932471;28;20209;-81
2023/04/18 01:40:23;;;;;;;6.27;5.00;;;;;;;9.44;nan;99699.22;4947002;28;20209;-79
2023/04/18 01:42:49;;;;;;;7.60;4.45;;;;;;;9.35;nan;99691.91;4931507;28;20265;-83
2023/04/18 01:45:15;;;;;;;4.80;3.93;;;;;;;9.29;nan;99689.63;4950167;28;20630;-82
2023/04/18 01:47:40;;;;;;;6.25;5.30;;;;;;;9.23;nan;99687.34;4936434;28;20244;-85
2023/04/18 01:50:09;;;;;;;5.20;4.70;;;;;;;9.13;nan;99686.16;4934698;28;20248;-80
2023/04/18 01:52:34;;;;;;;5.90;5.30;;;;;;;9.03;nan;99688.47;4947653;28;20699;-82
2023/04/18 01:55:04;;;;;;;4.90;4.27;;;;;;;8.96;nan;99685.34;4942664;28;20809;-85
2023/04/18 01:57:31;;;;;;;5.00;4.50;;;;;;;8.91;nan;99694.38;4927053;28;20212;-81
2023/04/18 01:59:57;;;;;;;6.78;5.38;;;;;;;8.84;nan;99697.34;4926744;28;20639;-81
2023/04/18 02:02:22;;;;;;;6.43;4.90;;;;;;;8.81;nan;99694.06;4941901;28;20237;-81
2023/04/18 02:04:48;;;;;;;7.70;5.97;;;;;;;8.75;nan;99697.88;4944934;28;20201;-80
2023/04/18 02:07:13;;;;;;;6.17;5.57;;;;;;;8.69;nan;99703.41;4942899;28;20204;-84
2023/04/18 02:09:38;;;;;;;8.80;4.90;;;;;;;8.65;nan;99701.91;4946266;28;20207;-80
2023/04/18 02:12:04;;;;;;;7.13;5.53;;;;;;;8.60;nan;99707.38;4940519;28;20240;-79
2023/04/18 02:14:34;;;;;;;8.10;5.40;;;;;;;8.60;nan;99698.69;4945221;28;20207;-81
2023/04/18 02:17:00;;;;;;;7.38;6.43;;;;;;;8.55;nan;99701.53;4968061;28;20615;-79
2023/04/18 02:19:27;;;;;;;10.30;6.63;;;;;;;8.53;nan;99703.41;4965713;28;20740;-79
2023/04/18 02:21:53;;;;;;;8.88;6.20;;;;;;;8.50;nan;99708.78;4968226;28;20219;-84
2023/04/18 02:24:18;;;;;;;8.80;6.03;;;;;;;8.49;nan;99716.75;4957774;28;20220;-83
2023/04/18 02:26:43;;;;;;;10.57;6.47;;;;;;;8.48;nan;99704.56;4967926;28;20615;-81
2023/04/18 02:29:09;;;;;;;8.37;5.93;;;;;;;8.46;nan;99709.91;4951032;28;20216;-83
2023/04/18 02:31:40;;;;;;;8.30;5.43;;;;;;;8.46;nan;99712.53;4946912;28;21049;-81
2023/04/18 02:34:07;;;;;;;8.73;6.30;;;;;;;8.46;nan;99716.91;4965278;28;20512;-80
2023/04/18 02:36:32;;;;;;;6.57;5.85;;;;;;;8.45;nan;99725.69;4962439;28;20199;-82
2023/04/18 02:38:58;;;;;;;7.63;6.10;;;;;;;8.43;nan;99723.16;4952199;28;20184;-85
2023/04/18 02:41:23;;;;;;;8.50;6.47;;;;;;;8.42;nan;99716.22;4971465;28;22656;-79
2023/04/18 02:43:49;;;;;;;8.60;6.03;;;;;;;8.42;nan;99721.44;4973226;28;20202;-79
2023/04/18 02:46:16;;;;;;;7.13;5.85;;;;;;;8.44;nan;99722.22;4955219;28;20581;-81
2023/04/18 02:48:45;;;;;;;13.32;6.45;;;;;;;8.45;nan;99720.44;4970999;28;20215;-83
2023/04/18 02:51:11;;;;;;;9.23;6.40;;;;;;;8.43;nan;99717.09;4967391;28;20208;-84
2023/04/18 02:53:37;;;;;;;9.47;6.23;;;;;;;8.44;nan;99722.22;4951967;28;20204;-86
2023/04/18 02:56:03;;;;;;;8.00;6.27;;;;;;;8.45;nan;99723.06;4968073;28;20545;-79
2023/04/18 02:58:49;;;;;;;9.48;6.20;;;;;;;8.46;nan;99722.16;4971407;28;20234;-83
2023/04/18 03:01:49;;;;;;;10.10;5.90;;;;;;;8.48;nan;99721.16;4919219;29;20257;-82
2023/04/18 03:04:17;;;;;;;8.00;6.57;;;;;;;8.49;nan;99714.97;4943054;28;20834;-82
2023/04/18 03:06:52;;;;;;;9.98;6.38;;;;;;;8.51;nan;99720.13;4953487;28;20798;-79
2023/04/18 03:09:18;;;;;;;8.63;5.80;;;;;;;8.51;nan;99713.13;4952713;28;20733;-83
2023/04/18 03:11:48;;;;;;;9.00;7.18;;;;;;;8.51;nan;99726.22;4967676;28;20580;-83
2023/04/18 03:14:15;;;;;;;12.77;7.40;;;;;;;8.51;nan;99709.66;4953167;28;20406;-80
2023/04/18 03:20:35;;;;;;;8.90;6.28;;;;;;;8.48;nan;99704.56;4963585;28;20207;-81
2023/04/18 03:23:01;;;;;;;9.13;6.90;;;;;;;8.46;nan;99699.44;4973362;28;20697;-79
2023/04/18 03:25:29;;;;;;;7.55;6.03;;;;;;;8.44;nan;99698.66;4965620;28;20185;-81
2023/04/18 03:27:55;;;;;;;11.67;7.77;;;;;;;8.44;nan;99697.81;4944193;28;20231;-86
2023/04/18 03:30:21;;;;;;;8.73;7.78;;;;;;;8.40;nan;99702.38;4943412;28;20449;-87
2023/04/18 03:32:54;;;;;;;9.38;7.15;;;;;;;8.36;nan;99706.88;4958591;28;20862;-85
2023/04/18 03:35:20;;;;;;;11.82;9.75;;;;;;;8.34;nan;99705.28;4935111;28;20642;-84
2023/04/18 03:37:46;;;;;;;9.70;7.20;;;;;;;8.30;nan;99711.59;4934397;28;20366;-86
2023/04/18 03:40:18;;;;;;;8.50;7.22;;;;;;;8.23;nan;99703.22;4946624;28;20291;-80
2023/04/18 03:42:45;;;;;;;12.40;7.88;;;;;;;8.16;nan;99694.84;4921676;28;20204;-83
2023/04/18 03:45:11;;;;;;;12.50;8.90;;;;;;;8.12;nan;99695.09;4952303;28;20191;-86
2023/04/18 03:47:37;;;;;;;11.52;8.30;;;;;;;8.07;nan;99700.56;4936303;28;20204;-83
2023/04/18 03:50:02;;;;;;;10.83;8.00;;;;;;;8.01;nan;99703.50;4960905;28;20200;-79
2023/04/18 03:52:29;;;;;;;14.73;9.98;;;;;;;7.96;nan;99695.88;4936294;28;20207;-87
2023/04/18 03:54:55;;;;;;;13.50;9.13;;;;;;;7.92;nan;99702.19;4953706;28;20176;-85
2023/04/18 03:57:24;;;;;;;11.27;8.52;;;;;;;7.89;nan;99696.28;4941750;28;20204;-86
2023/04/18 03:59:50;;;;;;;17.10;10.32;;;;;;;7.86;nan;99706.91;4941704;28;20535;-83
2023/04/18 04:02:15;;;;;;;19.00;9.50;;;;;;;7.84;nan;99706.13;4957561;28;20211;-80
2023/04/18 04:04:41;;;;;;;14.40;9.10;;;;;;;7.82;nan;99713.22;4955628;28;20247;-84
2023/04/18 04:07:08;;;;;;;12.25;8.35;;;;;;;7.79;nan;99710.75;4943656;28;20199;-86
2023/04/18 04:09:35;;;;;;;17.45;9.50;;;;;;;7.77;nan;99708.19;4956740;28;20538;-84
2023/04/18 04:12:01;;;;;;;15.47;9.80;;;;;;;7.76;nan;99709.13;4959297;28;20900;-83
2023/04/18 04:14:27;;;;;;;13.98;9.88;;;;;;;7.76;nan;99709.97;4954594;28;21155;-85
2023/04/18 04:16:53;;;;;;;12.80;9.43;;;;;;;7.74;nan;99719.66;4939177;28;20181;-82
2023/04/18 04:19:19;;;;;;;14.50;10.67;;;;;;;7.74;nan;99703.13;4935604;28;20180;-85
2023/04/18 10:01:25;;;;;;;16.35;11.02;;;;;;;11.43;nan;99799.22;4290772;26;20767;-80
2023/04/18 10:03:52;;;;;;;14.23;11.00;;;;;;;11.44;nan;99800.06;4963441;28;20310;-79
2023/04/18 10:09:15;;;;;;;19.40;12.60;;;;;;;11.48;nan;99796.31;4988757;23;20743;-85
2023/04/18 10:11:43;;;;;;;16.15;11.95;;;;;;;11.54;nan;99795.91;4984870;28;20396;-85
2023/04/18 10:14:21;;;;;;;14.82;11.48;;;;;;;11.59;nan;99799.09;4981259;28;20202;-86
2023/04/18 10:16:47;;;;;;;14.10;10.43;;;;;;;11.59;nan;99799.09;4974599;28;20214;-85
2023/04/18 10:19:43;;;;;;;17.47;12.53;;;;;;;11.59;nan;99796.44;4979624;28;20192;-85
2023/04/18 10:22:11;;;;;;;15.40;12.15;;;;;;;11.65;nan;99795.22;4980501;28;20622;-85
2023/04/18 10:24:55;;;;;;;12.88;10.93;;;;;;;11.71;nan;99793.00;4981143;28;20198;-86
2023/04/18 10:27:48;;;;;;;17.58;12.48;;;;;;;11.71;nan;99795.63;4981555;28;20237;-85
2023/04/18 10:30:15;;;;;;;14.85;11.95;;;;;;;11.67;nan;99790.69;4982902;28;20963;-85
2023/04/18 10:32:40;;;;;;;15.40;12.15;;;;;;;11.61;nan;99798.97;4977339;28;20222;-85
2023/04/18 10:35:06;;;;;;;14.33;12.27;;;;;;;11.54;nan;99797.69;4985578;28;20718;-84
2023/04/18 10:37:32;;;;;;;11.90;9.93;;;;;;;11.43;nan;99798.38;4981785;28;20195;-86
2023/04/18 10:40:03;;;;;;;17.90;12.30;;;;;;;11.37;nan;99804.88;4979527;28;20458;-86
2023/04/18 10:42:46;;;;;;;13.25;10.98;;;;;;;11.35;nan;99806.75;4978941;28;20449;-85
2023/04/18 10:45:23;;;;;;;16.38;12.35;;;;;;;11.30;nan;99799.16;4979445;28;20281;-85
2023/04/18 10:47:49;;;;;;;16.45;11.32;;;;;;;11.28;nan;99801.03;4980578;28;20198;-85
2023/04/18 10:50:18;;;;;;;15.90;11.00;;;;;;;11.31;nan;99797.38;4980456;28;20545;-85
2023/04/18 10:52:43;;;;;;;15.75;11.82;;;;;;;11.31;nan;99794.72;4980841;28;20198;-86
2023/04/18 10:55:14;;;;;;;15.17;11.10;;;;;;;11.30;nan;99800.94;4982246;28;20210;-85
2023/04/18 11:00:56;;;;;;;14.73;10.75;;;;;;;11.19;nan;99796.38;4949377;28;20325;-85
2023/04/18 11:03:33;;;;;;;21.33;13.40;;;;;;;11.18;nan;99793.81;4967845;28;20213;-85
2023/04/18 11:06:02;;;;;;;15.38;11.75;;;;;;;11.22;nan;99792.69;4967358;28;21006;-85
2023/04/18 11:08:27;;;;;;;14.93;11.63;;;;;;;11.24;nan;99783.78;4958925;28;20786;-85
2023/04/18 11:11:09;;;;;;;;;;;;;;;;;;;;;
2023/04/18 11:13:55;;;;;;;14.77;11.35;;;;;;;11.37;nan;99783.84;4949622;28;20462;-85
2023/04/18 11:16:31;;;;;;;17.73;10.15;;;;;;;11.38;nan;99779.41;4951933;28;20218;-85
2023/04/18 11:18:56;;;;;;;15.70;12.10;;;;;;;11.38;nan;99782.06;4953624;28;20755;-85
2023/04/18 11:21:30;;;;;;;13.67;11.93;;;;;;;11.37;nan;99777.72;4952592;28;20218;-85
2023/04/18 11:23:57;;;;;;;18.65;12.38;;;;;;;11.36;nan;99770.78;4953955;28;20207;-85
2023/04/18 11:26:29;;;;;;;16.48;10.93;;;;;;;11.32;nan;99770.13;4953369;28;20204;-85
2023/04/18 11:29:07;;;;;;;;;;;;;;;;;;;;;
2023/04/18 11:31:50;;;;;;;;;;;;;;;;;;;;;
2023/04/18 11:34:18;;;;;;;14.85;11.30;;;;;;;11.33;nan;99771.81;4949221;28;20283;-85
2023/04/18 11:36:54;;;;;;;19.40;14.53;;;;;;;11.30;nan;99777.28;4948551;28;20303;-85
2023/04/18 11:39:33;;;;;;;14.70;11.57;;;;;;;11.33;nan;99778.88;4953537;28;20198;-86
2023/04/18 11:42:02;;;;;;;18.83;12.23;;;;;;;11.41;nan;99781.84;4953455;28;20203;-86
2023/04/18 11:44:27;;;;;;;16.13;11.70;;;;;;;11.45;nan;99770.16;4952411;28;20273;-85
2023/04/18 11:46:58;;;;;;;14.63;13.07;;;;;;;11.47;nan;99779.66;4954578;28;20206;-87
2023/04/18 11:49:43;;;;;;;;;;;;;;;;;;;;;
2023/04/18 11:52:12;;;;;;;14.40;10.90;;;;;;;11.57;nan;99773.81;4950428;28;20207;-85
2023/04/18 11:54:44;;;;;;;18.20;10.88;;;;;;;11.65;nan;99775.00;4953845;28;20204;-86
2023/04/18 11:57:28;;;;;;;15.25;12.73;;;;;;;11.74;nan;99776.16;4952150;28;20200;-85
2023/04/18 12:00:17;;;;;;;;;;;;;;;;;;;;;
2023/04/18 12:02:48;;;;;;;16.40;11.52;;;;;;;11.86;nan;99783.31;4951885;28;20195;-87
2023/04/18 12:05:35;;;;;;;17.23;11.57;;;;;;;11.90;nan;99789.19;4951600;28;20721;-85
2023/04/18 12:08:16;;;;;;;17.23;12.80;;;;;;;11.95;nan;99777.41;4958715;28;21016;-87
2023/04/18 12:10:51;;;;;;;16.05;11.35;;;;;;;12.05;nan;99782.94;4966814;28;20701;-86
2023/04/18 12:13:22;;;;;;;15.82;11.07;;;;;;;12.14;nan;99781.47;4966480;28;20545;-86
2023/04/18 12:16:01;;;;;;;;;;;;;;;;;;;;;
2023/04/18 12:18:27;;;;;;;19.70;12.00;;;;;;;12.31;nan;99772.41;4969158;28;20272;-86
2023/04/18 12:20:53;;;;;;;17.80;11.67;;;;;;;12.42;nan;99775.16;4967404;28;20607;-85
2023/04/18 12:23:36;;;;;;;11.85;10.07;;;;;;;12.49;nan;99780.84;4973790;28;20215;-86
2023/04/18 12:26:13;;;;;;;13.38;11.10;;;;;;;12.55;nan;99783.88;4968946;28;20210;-85
2023/04/18 12:28:47;;;;;;;15.20;11.07;;;;;;;12.65;nan;99783.28;4965610;28;20208;-86
2023/04/18 12:31:12;;;;;;;21.80;12.90;;;;;;;12.75;nan;99774.63;4967892;28;20231;-86
2023/04/18 12:33:38;;;;;;;15.53;11.53;;;;;;;12.85;nan;99780.06;4960646;28;20637;-87
2023/04/18 12:36:04;;;;;;;17.17;11.03;;;;;;;12.92;nan;99769.94;4966957;28;20942;-86
2023/04/18 12:38:30;;;;;;;13.98;10.93;;;;;;;13.05;nan;99774.25;4962599;28;20228;-86
2023/04/18 12:41:11;;;;;;;;;;;;;;;;;;;;;
2023/04/18 12:43:47;;;;;;;11.30;9.98;;;;;;;13.39;nan;99761.28;4968192;28;20735;-88
2023/04/18 12:46:15;;;;;;;16.40;11.63;;;;;;;13.55;nan;99766.28;4973998;28;20668;-88
2023/04/18 12:48:51;;;;;;;18.50;11.73;;;;;;;13.68;nan;99758.31;4972061;28;20241;-88
2023/04/18 12:51:32;;;;;;;;;;;;;;;;;;;;;
2023/04/18 12:54:25;;;;;;;14.68;11.50;;;;;;;13.93;nan;99760.81;4967614;28;20199;-88
2023/04/18 12:57:21;;;;;;;;;;;;;;;;;;;;;
2023/04/18 12:59:50;;;;;;;14.88;12.45;;;;;;;14.14;nan;99757.50;4971988;28;20195;-85
2023/04/18 13:02:30;;;;;;;;;;;;;;;;;;;;;
2023/04/18 13:05:04;;;;;;;17.58;10.40;;;;;;;14.34;nan;99748.91;4971238;28;20206;-87
2023/04/18 13:07:53;;;;;;;;;;;;;;;;;;;;;
2023/04/18 13:10:29;;;;;;;16.55;11.88;;;;;;;14.36;nan;99749.59;4965188;28;20225;-88
2023/04/18 13:13:11;;;;;;;15.77;11.73;;;;;;;14.43;nan;99743.88;4962415;28;20344;-88
2023/04/18 13:15:47;;;;;;;18.33;12.35;;;;;;;14.51;nan;99736.19;4960926;28;20222;-85
2023/04/18 13:18:23;;;;;;;;;;;;;;;;;;;;;
2023/04/18 13:20:51;;;;;;;13.00;10.93;;;;;;;14.79;nan;99735.72;4963084;28;20277;-87
2023/04/18 13:23:16;;;;;;;25.35;11.35;;;;;;;14.91;nan;99738.38;4963950;28;20298;-87
2023/04/18 13:25:55;;;;;;;14.45;11.10;;;;;;;14.92;nan;99732.09;4963761;28;20196;-86
2023/04/18 13:28:34;;;;;;;13.55;10.60;;;;;;;15.02;nan;99730.41;4962767;28;20199;-88
2023/04/18 13:31:00;;;;;;;13.18;11.50;;;;;;;15.16;nan;99732.78;4965634;28;20245;-85
2023/04/18 13:33:25;;;;;;;12.13;10.40;;;;;;;15.40;nan;99719.34;4962295;28;20630;-85
2023/04/18 13:35:50;;;;;;;18.90;11.53;;;;;;;15.60;nan;99715.06;4961679;28;21031;-87
2023/04/18 13:38:16;;;;;;;14.67;10.70;;;;;;;15.65;nan;99723.47;4960996;28;20200;-86
2023/04/18 13:40:41;;;;;;;13.20;10.57;;;;;;;15.65;nan;99717.34;4959112;28;20227;-86
2023/04/18 13:43:09;;;;;;;12.27;9.90;;;;;;;15.59;nan;99718.69;4962463;28;20677;-85
2023/04/18 13:45:59;;;;;;;13.82;11.23;;;;;;;15.58;nan;99722.31;4959969;28;20220;-86
2023/04/18 13:48:41;;;;;;;16.23;11.20;;;;;;;15.58;nan;99719.66;4960395;28;20220;-86
2023/04/18 13:51:11;;;;;;;11.88;10.50;;;;;;;15.54;nan;99712.94;4963146;28;20671;-86
2023/04/18 13:53:50;;;;;;;15.15;11.93;;;;;;;15.51;nan;99712.34;4962223;28;20196;-86
2023/04/18 13:56:39;;;;;;;;;;;;;;;;;;;;;
2023/04/18 13:59:07;;;;;;;12.82;10.60;;;;;;;15.38;nan;99713.34;4958633;28;20199;-85
2023/04/18 14:01:33;;;;;;;15.00;11.70;;;;;;;15.42;nan;99713.94;4964107;28;20210;-87
2023/04/18 14:04:01;;;;;;;13.03;9.90;;;;;;;15.42;nan;99708.66;4958328;28;20206;-86
2023/04/18 14:06:39;;;;;;;;;;;;;;;;;;;;;
2023/04/18 14:09:12;;;;;;;15.40;11.13;;;;;;;15.51;nan;99699.13;4960574;28;20733;-85
2023/04/18 14:11:38;;;;;;;15.70;10.93;;;;;;;15.47;nan;99693.22;4960849;28;20214;-85
2023/04/18 14:14:04;;;;;;;13.38;10.40;;;;;;;15.48;nan;99701.03;4964571;28;20705;-86
2023/04/18 14:16:32;;;;;;;16.40;10.70;;;;;;;15.48;nan;99702.84;4960040;28;20206;-86
2023/04/18 14:18:58;;;;;;;16.25;10.80;;;;;;;15.57;nan;99706.53;4961812;28;20238;-86
2023/04/18 14:21:28;;;;;;;14.10;9.93;;;;;;;15.75;nan;99694.44;4960218;28;20229;-89
2023/04/18 14:23:55;;;;;;;15.93;10.30;;;;;;;15.87;nan;99687.28;4963076;28;20202;-87
2023/04/18 14:26:23;;;;;;;14.75;10.70;;;;;;;15.91;nan;99694.00;4962183;28;20356;-86
2023/04/18 14:28:49;;;;;;;11.52;10.27;;;;;;;15.97;nan;99695.28;4963897;28;20220;-85
2023/04/18 14:31:15;;;;;;;17.50;11.03;;;;;;;16.05;nan;99696.31;4959648;28;20574;-86
2023/04/18 14:33:53;;;;;;;;;;;;;;;;;;;;;
2023/04/18 14:36:25;;;;;;;12.18;10.35;;;;;;;16.21;nan;99697.66;4967059;28;20293;-87
2023/04/18 14:39:08;;;;;;;17.02;11.80;;;;;;;16.22;nan;99689.56;4970882;28;20203;-86
2023/04/18 14:41:33;;;;;;;11.93;9.88;;;;;;;16.18;nan;99690.81;4968815;28;20211;-87
2023/04/18 14:44:09;;;;;;;11.82;9.70;;;;;;;16.15;nan;99689.25;4964709;28;20641;-86
2023/04/18 14:46:47;;;;;;;;;;;;;;;;;;;;;
2023/04/18 14:49:26;;;;;;;18.90;13.05;;;;;;;16.27;nan;99678.56;4969063;28;20285;-87
2023/04/18 14:52:11;;;;;;;14.43;10.93;;;;;;;16.43;nan;99680.75;4969228;28;20735;-86
2023/04/18 14:54:52;;;;;;;13.55;11.35;;;;;;;16.52;nan;99678.13;4965441;28;20203;-87
2023/04/18 14:57:20;;;;;;;10.50;9.50;;;;;;;16.60;nan;99675.63;4965961;28;20246;-87
2023/04/18 14:59:56;;;;;;;;;;;;;;;;;;;;;
2023/04/18 15:02:24;;;;;;;13.98;9.48;;;;;;;16.79;nan;99666.91;4967204;28;20221;-85
2023/04/18 15:04:59;;;;;;;13.30;9.73;;;;;;;16.85;nan;99665.56;4966431;28;20221;-86
2023/04/18 15:07:37;;;;;;;13.93;9.98;;;;;;;16.96;nan;99673.41;4966864;28;20235;-87
2023/04/18 15:10:13;;;;;;;;;;;;;;;;;;;;;
2023/04/18 15:12:42;;;;;;;12.17;10.00;;;;;;;17.13;nan;99657.78;4967994;28;20202;-87
2023/04/18 15:15:21;;;;;;;13.27;10.77;;;;;;;17.15;nan;99651.34;4968891;28;20463;-86
2023/04/18 15:17:57;;;;;;;11.60;10.20;;;;;;;17.15;nan;99655.84;4965595;28;20232;-87
2023/04/18 15:20:29;;;;;;;11.50;9.15;;;;;;;17.13;nan;99655.13;4972065;28;20880;-85
2023/04/18 15:22:55;;;;;;;12.77;9.57;;;;;;;17.10;nan;99650.94;4967612;28;20211;-87
2023/04/18 15:25:29;;;;;;;14.13;9.50;;;;;;;17.02;nan;99656.09;4969460;28;20704;-87
2023/04/18 15:27:57;;;;;;;12.23;10.32;;;;;;;16.96;nan;99646.88;4970846;28;20552;-85
2023/04/18 15:30:25;;;;;;;11.40;9.20;;;;;;;16.96;nan;99657.47;4972207;28;20683;-87
2023/04/18 15:33:03;;;;;;;;;;;;;;;;;;;;;
2023/04/18 15:35:41;;;;;;;10.87;9.73;;;;;;;17.00;nan;99642.94;4962442;28;20709;-86
2023/04/18 15:38:09;;;;;;;13.77;11.10;;;;;;;16.90;nan;99646.56;4964567;28;20449;-87
2023/04/18 15:40:52;;;;;;;;;;;;;;;;;;;;;
2023/04/18 15:43:55;;;;;;;;;;;;;;;;;;;;;
2023/04/18 15:46:21;;;;;;;13.75;9.90;;;;;;;16.85;nan;99649.66;4963756;28;20213;-87
2023/04/18 15:49:07;;;;;;;13.50;9.25;;;;;;;16.90;nan;99652.69;4966854;28;20217;-88
2023/04/18 15:51:33;;;;;;;11.52;10.32;;;;;;;17.01;nan;99649.94;4964850;28;20193;-87
2023/04/18 15:54:01;;;;;;;14.80;9.50;;;;;;;17.10;nan;99652.75;4967742;28;20204;-87
2023/04/18 15:56:32;;;;;;;13.30;10.52;;;;;;;17.16;nan;99646.88;4966434;28;20250;-89
2023/04/18 15:59:00;;;;;;;10.85;8.98;;;;;;;17.24;nan;99645.19;4966311;28;20191;-88
2023/04/18 16:01:36;;;;;;;11.83;9.87;;;;;;;17.33;nan;99645.34;4967750;28;20220;-88
2023/04/18 16:04:01;;;;;;;12.63;9.00;;;;;;;17.35;nan;99638.91;4966981;28;20464;-86
2023/04/18 16:06:30;;;;;;;11.43;9.10;;;;;;;17.43;nan;99635.56;4965957;28;20910;-88
2023/04/18 16:09:05;;;;;;;8.87;7.60;;;;;;;17.53;nan;99638.22;4968604;28;20223;-87
2023/04/18 16:11:41;;;;;;;9.83;8.53;;;;;;;17.65;nan;99634.41;4972571;28;20446;-88
2023/04/18 16:14:20;;;;;;;10.87;7.97;;;;;;;17.78;nan;99628.81;4967394;28;20873;-87
2023/04/18 16:16:57;;;;;;;12.93;8.60;;;;;;;17.87;nan;99635.94;4955853;28;20483;-88
2023/04/18 16:19:37;;;;;;;12.97;9.40;;;;;;;17.85;nan;99622.81;4981222;28;20841;-87
2023/04/18 16:22:02;;;;;;;10.97;9.20;;;;;;;17.81;nan;99626.72;4974067;28;20642;-87
2023/04/18 16:24:31;;;;;;;15.30;9.00;;;;;;;17.70;nan;99625.03;4977442;28;20477;-88
2023/04/18 16:27:06;;;;;;;10.83;8.50;;;;;;;17.64;nan;99624.78;4974407;28;20467;-88
2023/04/18 16:29:35;;;;;;;10.90;8.90;;;;;;;17.57;nan;99635.13;4971939;28;20983;-88
2023/04/18 16:32:18;;;;;;;;;;;;;;;;;;;;;
2023/04/18 16:35:07;;;;;;;8.82;7.25;;;;;;;17.54;nan;99631.91;4963837;28;20215;-87
2023/04/18 16:37:36;;;;;;;9.00;6.43;;;;;;;17.59;nan;99625.19;4965890;28;20213;-88
2023/04/18 16:40:15;;;;;;;8.33;7.50;;;;;;;17.64;nan;99628.28;4968913;28;20448;-88
2023/04/18 16:43:06;;;;;;;;;;;;;;;;;;;;;
2023/04/18 16:45:55;;;;;;;;;;;;;;;;;;;;;
2023/04/18 16:48:38;;;;;;;;;;;;;;;;;;;;;
2023/04/18 16:51:27;;;;;;;;;;;;;;;;;;;;;
2023/04/18 16:54:35;;;;;;;5.50;5.03;;;;;;;17.61;nan;99635.69;4937913;28;20457;-87
2023/04/18 16:57:24;;;;;;;;;;;;;;;;;;;;;
2023/04/18 17:00:36;;;;;;;;;;;;;;;;;;;;;
2023/04/18 17:03:22;;;;;;;;;;;;;;;;;;;;;
2023/04/18 17:06:23;;;;;;;;;;;;;;;;;;;;;
2023/04/18 17:09:47;;;;;;;;;;;;;;;;;;;;;
2023/04/18 17:12:57;;;;;;;;;;;;;;;;;;;;;
2023/04/18 17:15:52;;;;;;;;;;;;;;;;;;;;;
2023/04/18 17:18:44;;;;;;;;;;;;;;;;;;;;;
2023/04/18 17:21:28;;;;;;;5.60;4.67;;;;;;;17.02;nan;99656.91;4962197;28;20457;-88
2023/04/18 17:24:17;;;;;;;;;;;;;;;;;;;;;
2023/04/18 17:26:55;;;;;;;4.50;4.10;;;;;;;16.90;nan;99667.78;4959903;28;20461;-87
2023/04/18 17:29:44;;;;;;;5.38;4.25;;;;;;;16.82;nan;99663.16;4965405;28;20495;-87
2023/04/18 17:32:29;;;;;;;9.83;5.47;;;;;;;16.71;nan;99663.25;4963062;28;20894;-87
2023/04/18 17:35:29;;;;;;;4.22;3.53;;;;;;;16.77;nan;99671.53;4961567;28;21228;-88
2023/04/18 17:38:01;;;;;;;5.47;4.97;;;;;;;16.74;nan;99674.44;4963664;28;20220;-87
2023/04/18 17:40:34;;;;;;;3.93;3.50;;;;;;;16.71;nan;99679.16;4960803;28;20492;-87
2023/04/18 17:43:12;;;;;;;;;;;;;;;;;;;;;
2023/04/18 17:46:01;;;;;;;;;;;;;;;;;;;;;
2023/04/18 17:48:42;;;;;;;4.63;4.23;;;;;;;16.37;nan;99690.06;4960029;28;20217;-87
2023/04/18 17:51:25;;;;;;;;;;;;;;;;;;;;;
2023/04/18 17:53:53;;;;;;;4.88;4.30;;;;;;;16.23;nan;99693.91;4962824;28;20669;-86
2023/04/18 17:56:20;;;;;;;5.28;4.78;;;;;;;16.17;nan;99698.88;4960335;28;20256;-89
2023/04/18 17:58:59;;;;;;;6.63;5.20;;;;;;;16.07;nan;99696.19;4965186;28;20202;-88
2023/04/18 18:01:34;;;;;;;4.32;3.80;;;;;;;15.97;nan;99700.59;4965044;28;20282;-87
2023/04/18 18:04:26;;;;;;;;;;;;;;;;;;;;;
2023/04/18 18:07:30;;;;;;;;;;;;;;;;;;;;;
2023/04/18 18:10:44;;;;;;;5.00;4.25;;;;;;;15.72;nan;99707.94;4967768;28;20311;-91
2023/04/18 18:13:50;;;;;;;;;;;;;;;;;;;;;
2023/04/18 18:16:54;;;;;;;;;;;;;;;;;;;;;
2023/04/18 18:19:42;;;;;;;;;;;;;;;;;;;;;
2023/04/18 18:22:27;;;;;;;;;;;;;;;;;;;;;
2023/04/18 18:25:42;;;;;;;;;;;;;;;;;;;;;
2023/04/18 18:28:42;;;;;;;;;;;;;;;;;;;;;
2023/04/18 18:31:47;;;;;;;;;;;;;;;;;;;;;
2023/04/18 18:34:42;;;;;;;;;;;;;;;;;;;;;
2023/04/18 18:37:24;;;;;;;7.32;3.88;;;;;;;15.23;nan;99746.38;4970673;28;20210;-89
2023/04/18 18:40:15;;;;;;;;;;;;;;;;;;;;;
2023/04/18 18:43:43;;;;;;;;;;;;;;;;;;;;;
2023/04/18 18:46:34;;;;;;;;;;;;;;;;;;;;;
2023/04/18 18:49:29;;;;;;;4.13;3.72;;;;;;;15.02;nan;99768.28;4968025;28;20216;-89
2023/04/18 18:52:05;;;;;;;;;;;;;;;;;;;;;
2023/04/18 18:55:02;;;;;;;;;;;;;;;;;;;;;
2023/04/18 18:57:52;;;;;;;4.30;3.70;;;;;;;14.92;nan;99777.06;4965309;28;20209;-89
2023/04/18 19:00:38;;;;;;;;;;;;;;;;;;;;;
2023/04/18 19:03:24;;;;;;;;;;;;;;;;;;;;;
2023/04/18 19:06:06;;;;;;;3.80;3.45;;;;;;;14.78;nan;99786.91;4968589;28;20203;-90
2023/04/18 19:09:03;;;;;;;;;;;;;;;;;;;;;
2023/04/18 19:11:53;;;;;;;;;;;;;;;;;;;;;
2023/04/18 19:14:27;;;;;;;3.50;3.20;;;;;;;14.65;nan;99796.78;4971047;28;20223;-90
2023/04/18 19:17:18;;;;;;;;;;;;;;;;;;;;;
2023/04/18 19:20:03;;;;;;;4.68;4.00;;;;;;;14.54;nan;99797.59;4974396;28;20202;-90
2023/04/18 19:22:43;;;;;;;4.30;3.90;;;;;;;14.52;nan;99801.28;4982248;28;20212;-90
2023/04/18 19:25:09;;;;;;;3.40;2.80;;;;;;;14.48;nan;99800.69;4982276;28;20202;-89